Falcon — WBE7134 — position and weather

sailwx.info

Track history (hours):
 
Tides and Currents Weather Stations Pressure Air Temp Water Temp Dewpoint Dewpoint Depression Visibility Wind Speed Wind Dir Waves Ship Positions

Falcon

Owner: Allied Transportation Company, NORFOLK, VA. More information available from US FCC via Universal Licensing System and Coast Guard Vessel Documentation Center.

Last reported at 2018-Feb-16 16:58 UTC. Time now 2018-Feb-19 00:24 UTC.
Position N 27°07' W 079°53'.

Length 37 m; draft 6 m.

Type: Tug. MMSI: 366976720.

Date/timePositionNaut miles runAvg speedWind from/ knotsBaromVisibWave heightAir tempDewpointWater temp
2018-Feb-16 16:58N 27°07' W 079°53'4 9.4
2018-Feb-16 16:30N 27°02' W 079°53'5 9.4
2018-Feb-16 16:00N 26°58' W 079°54'4 8.6
2018-Feb-16 15:30N 26°54' W 079°56'4 7.8
2018-Feb-16 15:00N 26°50' W 079°58'5 5.4
2018-Feb-16 14:04N 26°46' W 080°01'1 2.7
2018-Feb-16 13:52N 26°46' W 080°02'1 2.0
2018-Feb-16 13:29N 26°46' W 080°03'0 0.0
2018-Feb-15 10:30N 26°46' W 080°03'2 1.4
2018-Feb-15 08:45N 26°46' W 080°00'1 3.0
2018-Feb-15 08:25N 26°47' W 080°00'1 3.3
2018-Feb-15 08:00N 26°48' W 080°00'2 3.4
2018-Feb-15 07:30N 26°50' W 080°00'2 3.7
2018-Feb-15 07:00N 26°52' W 080°01'2 4.0
2018-Feb-15 06:30N 26°54' W 080°01'2 4.0
2018-Feb-15 06:00N 26°56' W 080°02'2 4.0
2018-Feb-15 05:30N 26°58' W 080°02'2 3.9
2018-Feb-15 05:00N 26°60' W 080°02'2 3.9
2018-Feb-15 04:30N 27°01' W 080°03'  
2018-Feb-10 11:40N 39°29' W 074°13'2 8.3
2018-Feb-10 11:24N 39°31' W 074°12'3 8.3
2018-Feb-10 11:00N 39°34' W 074°09'4 8.4
2018-Feb-10 10:30N 39°37' W 074°06'5 8.5
2018-Feb-10 09:51N 39°42' W 074°02'4 8.4
2018-Feb-10 09:23N 39°46' W 074°01'4 8.5
2018-Feb-10 08:56N 39°49' W 074°01'26 8.7
2018-Feb-10 05:54N 40°16' W 073°55'4 8.4
2018-Feb-10 05:28N 40°19' W 073°55'4 8.2
2018-Feb-10 05:00N 40°23' W 073°54'4 8.0
2018-Feb-10 04:29N 40°27' W 073°54'3 6.9
2018-Feb-10 04:00N 40°30' W 073°57'4 8.7
2018-Feb-10 03:30N 40°32' W 074°01'5 9.7
2018-Feb-10 03:00N 40°37' W 074°03'5 9.2
2018-Feb-10 02:30N 40°41' W 074°02'5 9.3
2018-Feb-10 02:00N 40°46' W 074°00'5 9.1
2018-Feb-10 01:30N 40°50' W 073°58'4 8.5
2018-Feb-10 01:00N 40°54' W 073°55'2 3.4
2018-Feb-10 00:26N 40°56' W 073°54'0 0.0
2018-Feb-09 23:56N 40°56' W 073°54'0 0.0
2018-Feb-09 23:29N 40°56' W 073°54'0 0.0
2018-Feb-09 22:59N 40°56' W 073°54'0 0.0
2018-Feb-09 22:44N 40°56' W 073°54'15 0.7
2018-Feb-09 02:31N 40°42' W 074°02'7 0.4
2018-Feb-08 07:30N 40°39' W 074°10'2 0.3
2018-Feb-08 01:26N 40°38' W 074°12'0 0.0
2018-Feb-08 00:59N 40°38' W 074°12'0 0.1
2018-Feb-08 00:30N 40°38' W 074°12'4 8.9
2018-Feb-08 00:00N 40°39' W 074°06'510.5
2018-Feb-07 23:30N 40°43' W 074°01'612.1
2018-Feb-07 23:00N 40°49' W 073°58'611.3
2018-Feb-07 22:30N 40°54' W 073°55'2 4.2
2018-Feb-07 22:00N 40°56' W 073°54'0 0.0
2018-Feb-07 21:27N 40°56' W 073°54'0 0.0
2018-Feb-07 09:30N 40°56' W 073°54'0 0.0
2018-Feb-07 08:57N 40°56' W 073°54'0 0.0
2018-Feb-07 08:30N 40°56' W 073°54'0 0.0
2018-Feb-07 08:00N 40°56' W 073°54'0 0.0
2018-Feb-07 07:30N 40°56' W 073°54'0 0.0
2018-Feb-07 07:00N 40°56' W 073°54'0 0.0
2018-Feb-07 06:30N 40°56' W 073°54'0 0.0
2018-Feb-07 06:00N 40°56' W 073°54'0 0.0
2018-Feb-07 05:30N 40°56' W 073°54'0 0.0
2018-Feb-07 05:00N 40°56' W 073°54'0 0.0
2018-Feb-07 04:30N 40°56' W 073°54'0 0.0
2018-Feb-07 04:00N 40°56' W 073°54'0 0.0
2018-Feb-07 03:30N 40°56' W 073°54'0 0.0
2018-Feb-07 03:00N 40°56' W 073°54'0 0.0
2018-Feb-07 02:30N 40°56' W 073°54'0 0.0
2018-Feb-07 02:00N 40°56' W 073°54'0 0.0
2018-Feb-07 00:42N 40°56' W 073°54'0 0.0
2018-Feb-07 00:21N 40°56' W 073°54'0 0.0
2018-Feb-06 23:21N 40°56' W 073°54'0 0.0
2018-Feb-06 23:00N 40°56' W 073°54'0 0.0
2018-Feb-06 22:15N 40°56' W 073°54'0 0.0
2018-Feb-06 21:42N 40°56' W 073°54'0 0.0
2018-Feb-06 21:27N 40°56' W 073°54'0 0.0
2018-Feb-06 20:30N 40°56' W 073°54'0 0.0
2018-Feb-06 20:00N 40°56' W 073°54'0 0.0
2018-Feb-06 19:24N 40°56' W 073°54'0 0.0
2018-Feb-06 18:57N 40°56' W 073°54'0 0.0
2018-Feb-06 18:27N 40°56' W 073°54'0 0.1
2018-Feb-06 18:00N 40°56' W 073°54'0 0.1
2018-Feb-06 17:29N 40°56' W 073°54'1 1.1
2018-Feb-06 17:00N 40°56' W 073°55'  
Track history (hours):
 
Tides and Currents Weather Stations Pressure Air Temp Water Temp Dewpoint Dewpoint Depression Visibility Wind Speed Wind Dir Waves Ship Positions

Falcon

Owner: Allied Transportation Company, NORFOLK, VA. More information available from US FCC via Universal Licensing System and Coast Guard Vessel Documentation Center.

Last reported at 2018-Feb-16 16:58 UTC. Time now 2018-Feb-19 00:24 UTC.
Position N 27°07' W 079°53'.

Length 37 m; draft 6 m.

Type: Tug. MMSI: 366976720.

Date/timePositionNaut miles runAvg speedWind from/ knotsBaromVisibWave heightAir tempDewpointWater temp
2018-Feb-16 16:58N 27°07' W 079°53'4 9.4
2018-Feb-16 16:30N 27°02' W 079°53'5 9.4
2018-Feb-16 16:00N 26°58' W 079°54'4 8.6
2018-Feb-16 15:30N 26°54' W 079°56'4 7.8
2018-Feb-16 15:00N 26°50' W 079°58'5 5.4
2018-Feb-16 14:04N 26°46' W 080°01'1 2.7
2018-Feb-16 13:52N 26°46' W 080°02'1 2.0
2018-Feb-16 13:29N 26°46' W 080°03'0 0.0
2018-Feb-15 10:30N 26°46' W 080°03'2 1.4
2018-Feb-15 08:45N 26°46' W 080°00'1 3.0
2018-Feb-15 08:25N 26°47' W 080°00'1 3.3
2018-Feb-15 08:00N 26°48' W 080°00'2 3.4
2018-Feb-15 07:30N 26°50' W 080°00'2 3.7
2018-Feb-15 07:00N 26°52' W 080°01'2 4.0
2018-Feb-15 06:30N 26°54' W 080°01'2 4.0
2018-Feb-15 06:00N 26°56' W 080°02'2 4.0
2018-Feb-15 05:30N 26°58' W 080°02'2 3.9
2018-Feb-15 05:00N 26°60' W 080°02'2 3.9
2018-Feb-15 04:30N 27°01' W 080°03'  
2018-Feb-10 11:40N 39°29' W 074°13'2 8.3
2018-Feb-10 11:24N 39°31' W 074°12'3 8.3
2018-Feb-10 11:00N 39°34' W 074°09'4 8.4
2018-Feb-10 10:30N 39°37' W 074°06'5 8.5
2018-Feb-10 09:51N 39°42' W 074°02'4 8.4
2018-Feb-10 09:23N 39°46' W 074°01'4 8.5
2018-Feb-10 08:56N 39°49' W 074°01'26 8.7
2018-Feb-10 05:54N 40°16' W 073°55'4 8.4
2018-Feb-10 05:28N 40°19' W 073°55'4 8.2
2018-Feb-10 05:00N 40°23' W 073°54'4 8.0
2018-Feb-10 04:29N 40°27' W 073°54'3 6.9
2018-Feb-10 04:00N 40°30' W 073°57'4 8.7
2018-Feb-10 03:30N 40°32' W 074°01'5 9.7
2018-Feb-10 03:00N 40°37' W 074°03'5 9.2
2018-Feb-10 02:30N 40°41' W 074°02'5 9.3
2018-Feb-10 02:00N 40°46' W 074°00'5 9.1
2018-Feb-10 01:30N 40°50' W 073°58'4 8.5
2018-Feb-10 01:00N 40°54' W 073°55'2 3.4
2018-Feb-10 00:26N 40°56' W 073°54'0 0.0
2018-Feb-09 23:56N 40°56' W 073°54'0 0.0
2018-Feb-09 23:29N 40°56' W 073°54'0 0.0
2018-Feb-09 22:59N 40°56' W 073°54'0 0.0
2018-Feb-09 22:44N 40°56' W 073°54'15 0.7
2018-Feb-09 02:31N 40°42' W 074°02'7 0.4
2018-Feb-08 07:30N 40°39' W 074°10'2 0.3
2018-Feb-08 01:26N 40°38' W 074°12'0 0.0
2018-Feb-08 00:59N 40°38' W 074°12'0 0.1
2018-Feb-08 00:30N 40°38' W 074°12'4 8.9
2018-Feb-08 00:00N 40°39' W 074°06'510.5
2018-Feb-07 23:30N 40°43' W 074°01'612.1
2018-Feb-07 23:00N 40°49' W 073°58'611.3
2018-Feb-07 22:30N 40°54' W 073°55'2 4.2
2018-Feb-07 22:00N 40°56' W 073°54'0 0.0
2018-Feb-07 21:27N 40°56' W 073°54'0 0.0
2018-Feb-07 09:30N 40°56' W 073°54'0 0.0
2018-Feb-07 08:57N 40°56' W 073°54'0 0.0
2018-Feb-07 08:30N 40°56' W 073°54'0 0.0
2018-Feb-07 08:00N 40°56' W 073°54'0 0.0
2018-Feb-07 07:30N 40°56' W 073°54'0 0.0
2018-Feb-07 07:00N 40°56' W 073°54'0 0.0
2018-Feb-07 06:30N 40°56' W 073°54'0 0.0
2018-Feb-07 06:00N 40°56' W 073°54'0 0.0
2018-Feb-07 05:30N 40°56' W 073°54'0 0.0
2018-Feb-07 05:00N 40°56' W 073°54'0 0.0
2018-Feb-07 04:30N 40°56' W 073°54'0 0.0
2018-Feb-07 04:00N 40°56' W 073°54'0 0.0
2018-Feb-07 03:30N 40°56' W 073°54'0 0.0
2018-Feb-07 03:00N 40°56' W 073°54'0 0.0
2018-Feb-07 02:30N 40°56' W 073°54'0 0.0
2018-Feb-07 02:00N 40°56' W 073°54'0 0.0
2018-Feb-07 00:42N 40°56' W 073°54'0 0.0
2018-Feb-07 00:21N 40°56' W 073°54'0 0.0
2018-Feb-06 23:21N 40°56' W 073°54'0 0.0
2018-Feb-06 23:00N 40°56' W 073°54'0 0.0
2018-Feb-06 22:15N 40°56' W 073°54'0 0.0
2018-Feb-06 21:42N 40°56' W 073°54'0 0.0
2018-Feb-06 21:27N 40°56' W 073°54'0 0.0
2018-Feb-06 20:30N 40°56' W 073°54'0 0.0
2018-Feb-06 20:00N 40°56' W 073°54'0 0.0
2018-Feb-06 19:24N 40°56' W 073°54'0 0.0
2018-Feb-06 18:57N 40°56' W 073°54'0 0.0
2018-Feb-06 18:27N 40°56' W 073°54'0 0.1
2018-Feb-06 18:00N 40°56' W 073°54'0 0.1
2018-Feb-06 17:29N 40°56' W 073°54'1 1.1
2018-Feb-06 17:00N 40°56' W 073°55'  

Dump ship's entire track history